LFOV

Details ICAO LFOV (LVA)
Name Laval Entrammes
Region France
Timezone Europe/Paris (UTC+1.0)
Plans Departing 20
Arriving 13
Stats Elevation 330 ft / 101 m (AMSL)
Location 48.031360° -0.742988°
Runways 1
Magnetic Variation 0.310° W
Sunrise 2017-12-17 07:49:07 UTC / 2017-12-17 08:49:07 Local
Sunset 2017-12-17 16:11:48 UTC / 2017-12-17 17:11:48 Local
Advertisement - Login to hide

Runways

ID Width Length Bearing (true) Bearing (mag) Surface Threshold Offset Overrun Length
15 98 ft / 30 m 5,004 ft / 1,525 m 142.43° 142.74° Asphalt 0 ft / 0 m 197 ft / 60 m
33 98 ft / 30 m 5,004 ft / 1,525 m 322.44° 322.75° Asphalt 985 ft / 300 m 197 ft / 60 m

Map

Weather


0- 5 10 15 20 25 30 35+ Temperature / ° C

Clouds and Precipitation
Forecast for 2017-12-17 06:00 UTC. Updated an hour ago

Ground ~20,000 ft ~40,000 ft Winds

METAR

LFOV 170600Z AUTO 30006KT 270V330 CAVOK 05/05 Q1026

TAF

Not found

Frequencies

Tower 119.30 MHz LAVAL INFO
Warning: Do not use this data for real-world aviation or navigation. No guarantee of current accuracy is given.